Portada
METAR-TAF:

METAR-TAF

Aeroports :

Posadas, Argentina

latitud: 27-22S, longitud: 055-58W, altitud: 131 m

Observació

L'informe es va fer fa 37 minuts, a les 20:00 UTC
Vent 12 kt del Sud/Sud-Oest
Temperatura 30°C
Humitat 27%
Pressió 1011 hPa
Visibilitat 10 km o més
sense núvols per sota de 1500 mi sense presència de cumulonimbus.

METAR: SARP 152000Z 20012KT CAVOK 30/09 Q1011

Hora: 17:37 (20:37 UTC)

Pronòstic

L'informe es va fer fa 3 hores i 37 minuts, a les 17:00 UTC
Pronòstic vàlid del 15 a les 18 UTC al 16 a les 18 UTC
Vent 5 kt del Sud-Est
Visibilitat 10 km o més
sense núvols per sota de 1500 mi sense presència de cumulonimbus.

TAF: SARP 151700Z 1518/1618 14005KT CAVOK TX32/1618Z TN18/1610Z

Observacions i pronòstics meteorològics de més de 4000 aeroports (METAR i TAF).

Les estacions disponibles són els punts grocs i vermells al mapa.

Posi el ratolí al punt desitjat per veure el nom de l'estació.

Feu clic per veure les observacions i els pronòstics meteorològics.

Per canviar el mapa: feu clic els botons verds amb una creu de color negre per apropar; al botó verd amb un guió per allunyar la imatge; o en les fletxes verdes per a mapes adjacents.


METAR-TAF: